sensor_id;sensor_type;location;lat;lon;timestamp;pressure;altitude;pressure_sealevel;temperature
75658;BMP280;64255;49.892;17.884;2022-12-01T00:01:23;99697.50;;;-1.20
75658;BMP280;64255;49.892;17.884;2022-12-01T00:03:50;99691.19;;;-1.16
75658;BMP280;64255;49.892;17.884;2022-12-01T00:06:20;99688.28;;;-1.11
75658;BMP280;64255;49.892;17.884;2022-12-01T00:08:50;99681.50;;;-1.12
75658;BMP280;64255;49.892;17.884;2022-12-01T00:11:17;99692.97;;;-1.00
75658;BMP280;64255;49.892;17.884;2022-12-01T00:13:45;99687.56;;;-1.08
75658;BMP280;64255;49.892;17.884;2022-12-01T00:16:15;99688.63;;;-1.12
75658;BMP280;64255;49.892;17.884;2022-12-01T00:18:43;99682.16;;;-0.95
75658;BMP280;64255;49.892;17.884;2022-12-01T00:21:16;99672.09;;;-0.89
75658;BMP280;64255;49.892;17.884;2022-12-01T00:23:50;99691.44;;;-0.78
75658;BMP280;64255;49.892;17.884;2022-12-01T00:26:19;99694.59;;;-0.92
75658;BMP280;64255;49.892;17.884;2022-12-01T00:28:59;99690.09;;;-1.15
75658;BMP280;64255;49.892;17.884;2022-12-01T00:31:26;99691.75;;;-1.26
75658;BMP280;64255;49.892;17.884;2022-12-01T00:33:54;99699.03;;;-1.19
75658;BMP280;64255;49.892;17.884;2022-12-01T00:36:23;99696.31;;;-1.23
75658;BMP280;64255;49.892;17.884;2022-12-01T00:38:53;99688.16;;;-1.18
75658;BMP280;64255;49.892;17.884;2022-12-01T00:41:22;99682.94;;;-1.14
75658;BMP280;64255;49.892;17.884;2022-12-01T00:43:49;99686.22;;;-1.21
75658;BMP280;64255;49.892;17.884;2022-12-01T00:46:17;99694.91;;;-1.17
75658;BMP280;64255;49.892;17.884;2022-12-01T00:48:45;99691.13;;;-1.19
75658;BMP280;64255;49.892;17.884;2022-12-01T00:51:12;99685.09;;;-1.20
75658;BMP280;64255;49.892;17.884;2022-12-01T00:53:39;99679.84;;;-1.20
75658;BMP280;64255;49.892;17.884;2022-12-01T00:56:06;99678.75;;;-1.19
75658;BMP280;64255;49.892;17.884;2022-12-01T00:58:34;99679.50;;;-1.18
75658;BMP280;64255;49.892;17.884;2022-12-01T01:01:02;99678.69;;;-1.23
75658;BMP280;64255;49.892;17.884;2022-12-01T01:03:31;99681.72;;;-1.20
75658;BMP280;64255;49.892;17.884;2022-12-01T01:06:08;99682.84;;;-1.21
75658;BMP280;64255;49.892;17.884;2022-12-01T01:08:37;99689.25;;;-1.19
75658;BMP280;64255;49.892;17.884;2022-12-01T01:11:06;99688.09;;;-1.21
75658;BMP280;64255;49.892;17.884;2022-12-01T01:13:34;99679.09;;;-1.20
75658;BMP280;64255;49.892;17.884;2022-12-01T01:16:06;99672.03;;;-1.16
75658;BMP280;64255;49.892;17.884;2022-12-01T01:18:34;99688.97;;;-1.14
75658;BMP280;64255;49.892;17.884;2022-12-01T01:21:06;99679.22;;;-1.13
75658;BMP280;64255;49.892;17.884;2022-12-01T01:23:34;99669.94;;;-1.07
75658;BMP280;64255;49.892;17.884;2022-12-01T01:26:07;99672.94;;;-1.09
75658;BMP280;64255;49.892;17.884;2022-12-01T01:28:35;99678.19;;;-1.09
75658;BMP280;64255;49.892;17.884;2022-12-01T01:31:07;99670.63;;;-1.10
75658;BMP280;64255;49.892;17.884;2022-12-01T01:33:35;99674.03;;;-1.10
75658;BMP280;64255;49.892;17.884;2022-12-01T01:36:03;99676.25;;;-1.12
75658;BMP280;64255;49.892;17.884;2022-12-01T01:38:31;99674.38;;;-1.11
75658;BMP280;64255;49.892;17.884;2022-12-01T01:40:58;99678.19;;;-1.09
75658;BMP280;64255;49.892;17.884;2022-12-01T01:43:55;99673.75;;;-1.04
75658;BMP280;64255;49.892;17.884;2022-12-01T01:46:33;99675.94;;;-1.06
75658;BMP280;64255;49.892;17.884;2022-12-01T01:49:10;99677.88;;;-1.03
75658;BMP280;64255;49.892;17.884;2022-12-01T01:56:50;99655.00;;;-1.03
75658;BMP280;64255;49.892;17.884;2022-12-01T01:59:28;99644.94;;;-0.97
75658;BMP280;64255;49.892;17.884;2022-12-01T02:02:05;99639.53;;;-0.85
75658;BMP280;64255;49.892;17.884;2022-12-01T02:04:44;99648.84;;;-0.87
75658;BMP280;64255;49.892;17.884;2022-12-01T02:07:17;99648.38;;;-0.93
75658;BMP280;64255;49.892;17.884;2022-12-01T02:09:45;99646.44;;;-0.96
75658;BMP280;64255;49.892;17.884;2022-12-01T02:12:35;99638.22;;;-0.95
75658;BMP280;64255;49.892;17.884;2022-12-01T02:16:23;99655.94;;;-0.91
75658;BMP280;64255;49.892;17.884;2022-12-01T02:25:11;99651.72;;;-0.96
75658;BMP280;64255;49.892;17.884;2022-12-01T02:31:49;99650.22;;;-0.97
75658;BMP280;64255;49.892;17.884;2022-12-01T02:37:46;99650.22;;;-0.97
75658;BMP280;64255;49.892;17.884;2022-12-01T02:41:03;99652.47;;;-0.96
75658;BMP280;64255;49.892;17.884;2022-12-01T02:43:32;99655.16;;;-0.92
75658;BMP280;64255;49.892;17.884;2022-12-01T02:46:30;99640.22;;;-0.88
75658;BMP280;64255;49.892;17.884;2022-12-01T02:49:07;99639.44;;;-0.88
75658;BMP280;64255;49.892;17.884;2022-12-01T02:51:39;99640.50;;;-0.93
75658;BMP280;64255;49.892;17.884;2022-12-01T02:54:09;99640.91;;;-0.91
75658;BMP280;64255;49.892;17.884;2022-12-01T02:56:37;99642.53;;;-0.83
75658;BMP280;64255;49.892;17.884;2022-12-01T02:59:10;99641.38;;;-0.85
75658;BMP280;64255;49.892;17.884;2022-12-01T03:08:11;99629.56;;;-0.45
75658;BMP280;64255;49.892;17.884;2022-12-01T03:10:55;99619.03;;;-0.45
75658;BMP280;64255;49.892;17.884;2022-12-01T03:13:31;99615.34;;;-0.40
75658;BMP280;64255;49.892;17.884;2022-12-01T03:16:58;99611.25;;;-0.38
75658;BMP280;64255;49.892;17.884;2022-12-01T03:22:16;99609.84;;;-0.32
75658;BMP280;64255;49.892;17.884;2022-12-01T03:24:48;99600.00;;;-0.35
75658;BMP280;64255;49.892;17.884;2022-12-01T03:27:25;99596.41;;;-0.23
75658;BMP280;64255;49.892;17.884;2022-12-01T03:29:57;99593.47;;;-0.18
75658;BMP280;64255;49.892;17.884;2022-12-01T03:32:45;99596.16;;;-0.14
75658;BMP280;64255;49.892;17.884;2022-12-01T03:35:29;99586.84;;;-0.08
75658;BMP280;64255;49.892;17.884;2022-12-01T03:38:16;99592.75;;;-0.18
75658;BMP280;64255;49.892;17.884;2022-12-01T03:40:49;99585.84;;;0.04
75658;BMP280;64255;49.892;17.884;2022-12-01T03:43:27;99590.22;;;-0.07
75658;BMP280;64255;49.892;17.884;2022-12-01T03:48:46;99601.09;;;-0.39
75658;BMP280;64255;49.892;17.884;2022-12-01T03:54:50;99606.59;;;-0.48
75658;BMP280;64255;49.892;17.884;2022-12-01T03:57:30;99600.97;;;-0.47
75658;BMP280;64255;49.892;17.884;2022-12-01T04:00:00;99601.38;;;-0.44
75658;BMP280;64255;49.892;17.884;2022-12-01T04:02:28;99605.03;;;-0.53
75658;BMP280;64255;49.892;17.884;2022-12-01T04:04:55;99602.91;;;-0.43
75658;BMP280;64255;49.892;17.884;2022-12-01T04:07:23;99608.94;;;-0.43
75658;BMP280;64255;49.892;17.884;2022-12-01T04:09:49;99612.59;;;-0.48
75658;BMP280;64255;49.892;17.884;2022-12-01T04:12:17;99614.50;;;-0.48
75658;BMP280;64255;49.892;17.884;2022-12-01T04:14:44;99614.13;;;-0.47
75658;BMP280;64255;49.892;17.884;2022-12-01T04:17:11;99609.59;;;-0.50
75658;BMP280;64255;49.892;17.884;2022-12-01T04:19:38;99613.91;;;-0.34
75658;BMP280;64255;49.892;17.884;2022-12-01T04:22:06;99615.94;;;-0.24
75658;BMP280;64255;49.892;17.884;2022-12-01T04:24:33;99616.44;;;-0.18
75658;BMP280;64255;49.892;17.884;2022-12-01T04:26:59;99616.66;;;-0.30
75658;BMP280;64255;49.892;17.884;2022-12-01T04:29:26;99615.25;;;-0.21
75658;BMP280;64255;49.892;17.884;2022-12-01T04:31:54;99621.22;;;-0.24
75658;BMP280;64255;49.892;17.884;2022-12-01T04:34:21;99611.50;;;-0.20
75658;BMP280;64255;49.892;17.884;2022-12-01T04:36:48;99601.75;;;-0.19
75658;BMP280;64255;49.892;17.884;2022-12-01T04:39:16;99599.66;;;-0.33
75658;BMP280;64255;49.892;17.884;2022-12-01T04:41:43;99604.16;;;-0.34
75658;BMP280;64255;49.892;17.884;2022-12-01T04:44:11;99604.88;;;-0.37
75658;BMP280;64255;49.892;17.884;2022-12-01T04:46:38;99603.72;;;-0.12
75658;BMP280;64255;49.892;17.884;2022-12-01T04:49:05;99600.16;;;-0.24
75658;BMP280;64255;49.892;17.884;2022-12-01T04:51:33;99595.31;;;-0.22
75658;BMP280;64255;49.892;17.884;2022-12-01T04:54:02;99604.91;;;-0.33
75658;BMP280;64255;49.892;17.884;2022-12-01T04:56:30;99607.69;;;-0.26
75658;BMP280;64255;49.892;17.884;2022-12-01T04:58:58;99606.56;;;-0.25
75658;BMP280;64255;49.892;17.884;2022-12-01T05:01:27;99601.63;;;0.04
75658;BMP280;64255;49.892;17.884;2022-12-01T05:03:54;99610.97;;;-0.02
75658;BMP280;64255;49.892;17.884;2022-12-01T05:06:26;99609.28;;;-0.18
75658;BMP280;64255;49.892;17.884;2022-12-01T05:08:57;99615.28;;;-0.17
75658;BMP280;64255;49.892;17.884;2022-12-01T05:11:27;99613.69;;;-0.25
75658;BMP280;64255;49.892;17.884;2022-12-01T05:13:55;99617.78;;;-0.28
75658;BMP280;64255;49.892;17.884;2022-12-01T05:16:30;99620.63;;;-0.13
75658;BMP280;64255;49.892;17.884;2022-12-01T05:19:04;99610.78;;;-0.17
75658;BMP280;64255;49.892;17.884;2022-12-01T05:21:31;99610.69;;;-0.24
75658;BMP280;64255;49.892;17.884;2022-12-01T05:23:58;99611.88;;;-0.21
75658;BMP280;64255;49.892;17.884;2022-12-01T05:26:26;99610.66;;;-0.27
75658;BMP280;64255;49.892;17.884;2022-12-01T05:28:53;99607.78;;;-0.15
75658;BMP280;64255;49.892;17.884;2022-12-01T05:31:20;99614.84;;;-0.23
75658;BMP280;64255;49.892;17.884;2022-12-01T05:33:47;99613.78;;;-0.18
75658;BMP280;64255;49.892;17.884;2022-12-01T05:36:15;99613.50;;;-0.09
75658;BMP280;64255;49.892;17.884;2022-12-01T05:38:42;99618.28;;;-0.19
75658;BMP280;64255;49.892;17.884;2022-12-01T05:41:09;99615.94;;;-0.24
75658;BMP280;64255;49.892;17.884;2022-12-01T05:43:37;99612.63;;;-0.21
75658;BMP280;64255;49.892;17.884;2022-12-01T05:46:05;99617.88;;;-0.21
75658;BMP280;64255;49.892;17.884;2022-12-01T05:48:32;99610.38;;;-0.19
75658;BMP280;64255;49.892;17.884;2022-12-01T05:50:59;99602.63;;;-0.08
75658;BMP280;64255;49.892;17.884;2022-12-01T05:53:26;99616.88;;;-0.12
75658;BMP280;64255;49.892;17.884;2022-12-01T05:55:53;99616.81;;;-0.16
75658;BMP280;64255;49.892;17.884;2022-12-01T05:58:21;99619.50;;;-0.12
75658;BMP280;64255;49.892;17.884;2022-12-01T06:00:49;99625.25;;;-0.03
75658;BMP280;64255;49.892;17.884;2022-12-01T06:03:16;99620.25;;;-0.12
75658;BMP280;64255;49.892;17.884;2022-12-01T06:05:43;99625.13;;;-0.14
75658;BMP280;64255;49.892;17.884;2022-12-01T06:08:11;99623.25;;;-0.13
75658;BMP280;64255;49.892;17.884;2022-12-01T06:10:38;99622.47;;;-0.14
75658;BMP280;64255;49.892;17.884;2022-12-01T06:13:05;99622.13;;;-0.12
75658;BMP280;64255;49.892;17.884;2022-12-01T06:15:33;99623.28;;;-0.10
75658;BMP280;64255;49.892;17.884;2022-12-01T06:18:00;99619.88;;;-0.10
75658;BMP280;64255;49.892;17.884;2022-12-01T06:20:27;99622.19;;;-0.09
75658;BMP280;64255;49.892;17.884;2022-12-01T06:22:54;99619.53;;;-0.09
75658;BMP280;64255;49.892;17.884;2022-12-01T06:25:22;99616.13;;;-0.09
75658;BMP280;64255;49.892;17.884;2022-12-01T06:27:49;99622.53;;;-0.10
75658;BMP280;64255;49.892;17.884;2022-12-01T06:30:16;99617.34;;;-0.03
75658;BMP280;64255;49.892;17.884;2022-12-01T06:32:43;99627.88;;;-0.03
75658;BMP280;64255;49.892;17.884;2022-12-01T06:35:10;99626.78;;;-0.02
75658;BMP280;64255;49.892;17.884;2022-12-01T06:37:37;99634.31;;;-0.01
75658;BMP280;64255;49.892;17.884;2022-12-01T06:40:05;99629.03;;;-0.01
75658;BMP280;64255;49.892;17.884;2022-12-01T06:42:33;99625.28;;;0.01
75658;BMP280;64255;49.892;17.884;2022-12-01T06:45:00;99633.59;;;0.03
75658;BMP280;64255;49.892;17.884;2022-12-01T06:47:27;99633.22;;;0.04
75658;BMP280;64255;49.892;17.884;2022-12-01T06:49:55;99633.63;;;0.06
75658;BMP280;64255;49.892;17.884;2022-12-01T06:52:22;99633.00;;;0.17
75658;BMP280;64255;49.892;17.884;2022-12-01T06:54:49;99632.94;;;0.09
75658;BMP280;64255;49.892;17.884;2022-12-01T06:57:16;99640.00;;;0.05
75658;BMP280;64255;49.892;17.884;2022-12-01T06:59:43;99633.25;;;0.08
75658;BMP280;64255;49.892;17.884;2022-12-01T07:02:11;99639.75;;;0.14
75658;BMP280;64255;49.892;17.884;2022-12-01T07:04:38;99635.56;;;0.09
75658;BMP280;64255;49.892;17.884;2022-12-01T07:07:06;99637.09;;;0.10
75658;BMP280;64255;49.892;17.884;2022-12-01T07:09:34;99637.53;;;0.16
75658;BMP280;64255;49.892;17.884;2022-12-01T07:12:01;99636.34;;;0.13
75658;BMP280;64255;49.892;17.884;2022-12-01T07:14:29;99641.22;;;0.11
75658;BMP280;64255;49.892;17.884;2022-12-01T07:16:57;99644.66;;;0.15
75658;BMP280;64255;49.892;17.884;2022-12-01T07:19:25;99657.91;;;0.23
75658;BMP280;64255;49.892;17.884;2022-12-01T07:21:52;99654.16;;;0.24
75658;BMP280;64255;49.892;17.884;2022-12-01T07:24:19;99646.56;;;0.19
75658;BMP280;64255;49.892;17.884;2022-12-01T07:26:46;99652.66;;;0.23
75658;BMP280;64255;49.892;17.884;2022-12-01T07:29:14;99645.94;;;0.29
75658;BMP280;64255;49.892;17.884;2022-12-01T07:31:41;99653.44;;;0.27
75658;BMP280;64255;49.892;17.884;2022-12-01T07:34:12;99643.66;;;0.27
75658;BMP280;64255;49.892;17.884;2022-12-01T07:36:38;99643.69;;;0.31
75658;BMP280;64255;49.892;17.884;2022-12-01T07:39:07;99645.19;;;0.28
75658;BMP280;64255;49.892;17.884;2022-12-01T07:41:35;99641.84;;;0.35
75658;BMP280;64255;49.892;17.884;2022-12-01T07:44:03;99651.25;;;0.36
75658;BMP280;64255;49.892;17.884;2022-12-01T07:46:29;99653.56;;;0.41
75658;BMP280;64255;49.892;17.884;2022-12-01T07:48:56;99656.16;;;0.38
75658;BMP280;64255;49.892;17.884;2022-12-01T07:51:25;99653.16;;;0.39
75658;BMP280;64255;49.892;17.884;2022-12-01T07:53:53;99655.75;;;0.36
75658;BMP280;64255;49.892;17.884;2022-12-01T07:56:21;99659.56;;;0.38
75658;BMP280;64255;49.892;17.884;2022-12-01T07:58:49;99657.31;;;0.40
75658;BMP280;64255;49.892;17.884;2022-12-01T08:01:20;99659.94;;;0.40
75658;BMP280;64255;49.892;17.884;2022-12-01T08:03:51;99666.00;;;0.41
75658;BMP280;64255;49.892;17.884;2022-12-01T08:06:20;99658.53;;;0.46
75658;BMP280;64255;49.892;17.884;2022-12-01T08:08:49;99672.81;;;0.45
75658;BMP280;64255;49.892;17.884;2022-12-01T08:11:23;99663.81;;;0.46
75658;BMP280;64255;49.892;17.884;2022-12-01T08:13:52;99656.63;;;0.47
75658;BMP280;64255;49.892;17.884;2022-12-01T08:16:21;99657.78;;;0.50
75658;BMP280;64255;49.892;17.884;2022-12-01T08:18:49;99656.66;;;0.51
75658;BMP280;64255;49.892;17.884;2022-12-01T08:21:20;99658.19;;;0.52
75658;BMP280;64255;49.892;17.884;2022-12-01T08:23:53;99655.97;;;0.54
75658;BMP280;64255;49.892;17.884;2022-12-01T08:26:21;99647.69;;;0.55
75658;BMP280;64255;49.892;17.884;2022-12-01T08:28:49;99641.28;;;0.56
75658;BMP280;64255;49.892;17.884;2022-12-01T08:31:31;99646.63;;;0.60
75658;BMP280;64255;49.892;17.884;2022-12-01T08:33:59;99646.63;;;0.60
75658;BMP280;64255;49.892;17.884;2022-12-01T08:36:26;99634.94;;;0.61
75658;BMP280;64255;49.892;17.884;2022-12-01T08:38:54;99638.34;;;0.61
75658;BMP280;64255;49.892;17.884;2022-12-01T08:41:23;99634.94;;;0.61
75658;BMP280;64255;49.892;17.884;2022-12-01T08:43:51;99628.56;;;0.62
75658;BMP280;64255;49.892;17.884;2022-12-01T08:46:19;99632.00;;;0.66
75658;BMP280;64255;49.892;17.884;2022-12-01T08:48:46;99634.22;;;0.64
75658;BMP280;64255;49.892;17.884;2022-12-01T08:51:17;99632.72;;;0.67
75658;BMP280;64255;49.892;17.884;2022-12-01T08:53:47;99636.13;;;0.67
75658;BMP280;64255;49.892;17.884;2022-12-01T08:56:21;99644.06;;;0.67
75658;BMP280;64255;49.892;17.884;2022-12-01T08:58:49;99643.34;;;0.70
75658;BMP280;64255;49.892;17.884;2022-12-01T09:01:17;99644.09;;;0.74
75658;BMP280;64255;49.892;17.884;2022-12-01T09:03:45;99638.09;;;0.74
75658;BMP280;64255;49.892;17.884;2022-12-01T09:06:17;99649.03;;;0.76
75658;BMP280;64255;49.892;17.884;2022-12-01T09:08:45;99651.66;;;0.76
75658;BMP280;64255;49.892;17.884;2022-12-01T09:11:16;99652.41;;;0.76
75658;BMP280;64255;49.892;17.884;2022-12-01T09:13:45;99642.66;;;0.81
75658;BMP280;64255;49.892;17.884;2022-12-01T09:16:16;99644.91;;;0.79
75658;BMP280;64255;49.892;17.884;2022-12-01T09:18:46;99646.03;;;0.77
75658;BMP280;64255;49.892;17.884;2022-12-01T09:21:24;99643.00;;;0.79
75658;BMP280;64255;49.892;17.884;2022-12-01T09:23:51;99643.75;;;0.76
75658;BMP280;64255;49.892;17.884;2022-12-01T09:26:19;99637.78;;;0.83
75658;BMP280;64255;49.892;17.884;2022-12-01T09:28:51;99641.56;;;0.85
75658;BMP280;64255;49.892;17.884;2022-12-01T09:31:19;99647.94;;;0.81
75658;BMP280;64255;49.892;17.884;2022-12-01T09:33:46;99641.63;;;0.92
75658;BMP280;64255;49.892;17.884;2022-12-01T09:36:14;99629.88;;;0.83
75658;BMP280;64255;49.892;17.884;2022-12-01T09:38:40;99628.78;;;0.84
75658;BMP280;64255;49.892;17.884;2022-12-01T09:50:13;99627.28;;;0.86
75658;BMP280;64255;49.892;17.884;2022-12-01T09:52:51;99622.00;;;0.86
75658;BMP280;64255;49.892;17.884;2022-12-01T09:55:21;99621.66;;;0.91
75658;BMP280;64255;49.892;17.884;2022-12-01T09:57:55;99620.88;;;0.84
75658;BMP280;64255;49.892;17.884;2022-12-01T10:00:34;99618.22;;;0.84
75658;BMP280;64255;49.892;17.884;2022-12-01T10:06:08;99618.59;;;0.86
75658;BMP280;64255;49.892;17.884;2022-12-01T10:11:41;99625.47;;;0.94
75658;BMP280;64255;49.892;17.884;2022-12-01T10:14:17;99615.25;;;0.89
75658;BMP280;64255;49.892;17.884;2022-12-01T10:20:41;99616.00;;;0.89
75658;BMP280;64255;49.892;17.884;2022-12-01T10:26:13;99609.66;;;0.94
75658;BMP280;64255;49.892;17.884;2022-12-01T10:32:19;99608.88;;;0.93
75658;BMP280;64255;49.892;17.884;2022-12-01T10:34:49;99601.34;;;0.92
75658;BMP280;64255;49.892;17.884;2022-12-01T10:37:27;99596.06;;;0.92
75658;BMP280;64255;49.892;17.884;2022-12-01T10:39:57;99590.81;;;0.99
75658;BMP280;64255;49.892;17.884;2022-12-01T10:42:48;99591.59;;;1.00
75658;BMP280;64255;49.892;17.884;2022-12-01T10:45:25;99594.63;;;1.02
75658;BMP280;64255;49.892;17.884;2022-12-01T10:48:18;99595.72;;;0.97
75658;BMP280;64255;49.892;17.884;2022-12-01T10:51:15;99596.09;;;0.99
75658;BMP280;64255;49.892;17.884;2022-12-01T10:53:43;99597.59;;;0.97
75658;BMP280;64255;49.892;17.884;2022-12-01T10:56:20;99591.53;;;0.92
75658;BMP280;64255;49.892;17.884;2022-12-01T10:58:56;99593.78;;;0.90
75658;BMP280;64255;49.892;17.884;2022-12-01T11:01:27;99596.06;;;0.92
75658;BMP280;64255;49.892;17.884;2022-12-01T11:04:20;99598.31;;;0.90
75658;BMP280;64255;49.892;17.884;2022-12-01T11:06:48;99598.34;;;0.97
75658;BMP280;64255;49.892;17.884;2022-12-01T11:09:24;99598.69;;;0.92
75658;BMP280;64255;49.892;17.884;2022-12-01T11:12:02;99598.31;;;0.93
75658;BMP280;64255;49.892;17.884;2022-12-01T11:14:49;99602.06;;;0.92
75658;BMP280;64255;49.892;17.884;2022-12-01T11:17:39;99603.97;;;0.92
75658;BMP280;64255;49.892;17.884;2022-12-01T11:20:38;99593.41;;;0.92
75658;BMP280;64255;49.892;17.884;2022-12-01T11:31:49;99586.66;;;0.95
75658;BMP280;64255;49.892;17.884;2022-12-01T11:34:24;99578.00;;;0.94
75658;BMP280;64255;49.892;17.884;2022-12-01T11:37:14;99585.50;;;0.92
75658;BMP280;64255;49.892;17.884;2022-12-01T11:39:45;99582.47;;;0.90
75658;BMP280;64255;49.892;17.884;2022-12-01T11:42:29;99580.97;;;0.89
75658;BMP280;64255;49.892;17.884;2022-12-01T11:50:42;99574.97;;;0.92
75658;BMP280;64255;49.892;17.884;2022-12-01T11:53:33;99577.59;;;0.92
75658;BMP280;64255;49.892;17.884;2022-12-01T11:56:26;99569.69;;;0.92
75658;BMP280;64255;49.892;17.884;2022-12-01T11:59:05;99571.59;;;0.95
75658;BMP280;64255;49.892;17.884;2022-12-01T12:24:54;99575.72;;;0.92
75658;BMP280;64255;49.892;17.884;2022-12-01T12:30:29;99563.28;;;0.89
75658;BMP280;64255;49.892;17.884;2022-12-01T12:33:40;99568.16;;;0.91
75658;BMP280;64255;49.892;17.884;2022-12-01T12:36:59;99577.63;;;0.96
75658;BMP280;64255;49.892;17.884;2022-12-01T12:39:46;99569.72;;;0.96
75658;BMP280;64255;49.892;17.884;2022-12-01T12:46:01;99573.50;;;0.98
75658;BMP280;64255;49.892;17.884;2022-12-01T12:52:09;99581.75;;;0.93
75658;BMP280;64255;49.892;17.884;2022-12-01T12:55:11;99580.25;;;0.92
75658;BMP280;64255;49.892;17.884;2022-12-01T12:57:57;99568.22;;;0.98
75658;BMP280;64255;49.892;17.884;2022-12-01T13:00:28;99580.25;;;0.92
75658;BMP280;64255;49.892;17.884;2022-12-01T13:03:04;99576.78;;;0.84
75658;BMP280;64255;49.892;17.884;2022-12-01T13:08:46;99562.47;;;0.82
75658;BMP280;64255;49.892;17.884;2022-12-01T13:11:45;99580.13;;;0.81
75658;BMP280;64255;49.892;17.884;2022-12-01T13:14:56;99570.75;;;0.84
75658;BMP280;64255;49.892;17.884;2022-12-01T13:17:35;99583.19;;;0.83
75658;BMP280;64255;49.892;17.884;2022-12-01T13:20:05;99579.78;;;0.83
75658;BMP280;64255;49.892;17.884;2022-12-01T13:22:34;99579.78;;;0.83
75658;BMP280;64255;49.892;17.884;2022-12-01T13:25:03;99579.41;;;0.84
75658;BMP280;64255;49.892;17.884;2022-12-01T13:27:34;99582.44;;;0.83
75658;BMP280;64255;49.892;17.884;2022-12-01T13:30:04;99583.91;;;0.80
75658;BMP280;64255;49.892;17.884;2022-12-01T13:32:39;99575.97;;;0.80
75658;BMP280;64255;49.892;17.884;2022-12-01T13:35:24;99578.63;;;0.80
75658;BMP280;64255;49.892;17.884;2022-12-01T13:37:53;99582.75;;;0.77
75658;BMP280;64255;49.892;17.884;2022-12-01T13:40:28;99568.44;;;0.79
75658;BMP280;64255;49.892;17.884;2022-12-01T13:43:02;99576.72;;;0.77
75658;BMP280;64255;49.892;17.884;2022-12-01T13:45:36;99583.06;;;0.72
75658;BMP280;64255;49.892;17.884;2022-12-01T13:50:58;99574.03;;;0.73
75658;BMP280;64255;49.892;17.884;2022-12-01T13:53:35;99579.31;;;0.73
75658;BMP280;64255;49.892;17.884;2022-12-01T13:56:24;99571.81;;;0.75
75658;BMP280;64255;49.892;17.884;2022-12-01T13:58:53;99578.19;;;0.74
75658;BMP280;64255;49.892;17.884;2022-12-01T14:04:26;99579.72;;;0.75
75658;BMP280;64255;49.892;17.884;2022-12-01T14:07:35;99579.72;;;0.75
75658;BMP280;64255;49.892;17.884;2022-12-01T14:12:46;99579.72;;;0.75
75658;BMP280;64255;49.892;17.884;2022-12-01T14:15:38;99580.84;;;0.74
75658;BMP280;64255;49.892;17.884;2022-12-01T14:18:34;99578.59;;;0.76
75658;BMP280;64255;49.892;17.884;2022-12-01T14:21:08;99586.47;;;0.73
75658;BMP280;64255;49.892;17.884;2022-12-01T14:23:57;99583.06;;;0.72
75658;BMP280;64255;49.892;17.884;2022-12-01T14:26:28;99590.63;;;0.74
75658;BMP280;64255;49.892;17.884;2022-12-01T14:34:13;99577.09;;;0.75
75658;BMP280;64255;49.892;17.884;2022-12-01T14:36:56;99595.13;;;0.73
75658;BMP280;64255;49.892;17.884;2022-12-01T14:39:44;99591.75;;;0.73
75658;BMP280;64255;49.892;17.884;2022-12-01T14:42:31;99594.75;;;0.71
75658;BMP280;64255;49.892;17.884;2022-12-01T14:45:02;99592.16;;;0.75
75658;BMP280;64255;49.892;17.884;2022-12-01T14:47:48;99588.34;;;0.72
75658;BMP280;64255;49.892;17.884;2022-12-01T14:50:38;99591.44;;;0.78
75658;BMP280;64255;49.892;17.884;2022-12-01T14:53:29;99579.72;;;0.75
75658;BMP280;64255;49.892;17.884;2022-12-01T14:56:15;99586.09;;;0.71
75658;BMP280;64255;49.892;17.884;2022-12-01T14:58:56;99583.06;;;0.72
75658;BMP280;64255;49.892;17.884;2022-12-01T15:01:34;99581.22;;;0.73
75658;BMP280;64255;49.892;17.884;2022-12-01T15:04:05;99577.81;;;0.72
75658;BMP280;64255;49.892;17.884;2022-12-01T15:06:35;99568.81;;;0.77
75658;BMP280;64255;49.892;17.884;2022-12-01T15:11:47;99577.09;;;0.79
75658;BMP280;64255;49.892;17.884;2022-12-01T15:14:32;99585.38;;;0.74
75658;BMP280;64255;49.892;17.884;2022-12-01T15:17:00;99579.31;;;0.73
75658;BMP280;64255;49.892;17.884;2022-12-01T15:19:35;99574.81;;;0.74
75658;BMP280;64255;49.892;17.884;2022-12-01T15:22:15;99571.81;;;0.75
75658;BMP280;64255;49.892;17.884;2022-12-01T15:24:44;99564.66;;;0.76
75658;BMP280;64255;49.892;17.884;2022-12-01T15:27:31;99572.53;;;0.72
75658;BMP280;64255;49.892;17.884;2022-12-01T15:30:00;99577.50;;;0.81
75658;BMP280;64255;49.892;17.884;2022-12-01T15:32:31;99574.44;;;0.75
75658;BMP280;64255;49.892;17.884;2022-12-01T15:35:00;99578.56;;;0.73
75658;BMP280;64255;49.892;17.884;2022-12-01T15:37:39;99587.59;;;0.72
75658;BMP280;64255;49.892;17.884;2022-12-01T15:40:18;99581.97;;;0.73
75658;BMP280;64255;49.892;17.884;2022-12-01T15:43:11;99578.59;;;0.76
75658;BMP280;64255;49.892;17.884;2022-12-01T15:46:14;99584.22;;;0.71
75658;BMP280;64255;49.892;17.884;2022-12-01T15:48:43;99590.59;;;0.70
75658;BMP280;64255;49.892;17.884;2022-12-01T15:51:23;99588.72;;;0.71
75658;BMP280;64255;49.892;17.884;2022-12-01T15:53:57;99590.59;;;0.70
75658;BMP280;64255;49.892;17.884;2022-12-01T15:56:39;99587.56;;;0.68
75658;BMP280;64255;49.892;17.884;2022-12-01T16:01:46;99593.19;;;0.67
75658;BMP280;64255;49.892;17.884;2022-12-01T16:04:29;99581.50;;;0.64
75658;BMP280;64255;49.892;17.884;2022-12-01T16:07:04;99592.81;;;0.65
75658;BMP280;64255;49.892;17.884;2022-12-01T16:12:19;99589.00;;;0.58
75658;BMP280;64255;49.892;17.884;2022-12-01T16:17:50;99600.31;;;0.59
75658;BMP280;64255;49.892;17.884;2022-12-01T16:20:32;99592.00;;;0.57
75658;BMP280;64255;49.892;17.884;2022-12-01T16:23:08;99584.44;;;0.55
75658;BMP280;64255;49.892;17.884;2022-12-01T16:25:42;99592.72;;;0.54
75658;BMP280;64255;49.892;17.884;2022-12-01T16:28:32;99587.44;;;0.54
75658;BMP280;64255;49.892;17.884;2022-12-01T16:31:00;99582.91;;;0.54
75658;BMP280;64255;49.892;17.884;2022-12-01T16:33:28;99587.81;;;0.52
75658;BMP280;64255;49.892;17.884;2022-12-01T16:35:58;99588.19;;;0.54
75658;BMP280;64255;49.892;17.884;2022-12-01T16:38:28;99582.88;;;0.51
75658;BMP280;64255;49.892;17.884;2022-12-01T16:40:59;99587.81;;;0.52
75658;BMP280;64255;49.892;17.884;2022-12-01T16:43:28;99580.66;;;0.53
75658;BMP280;64255;49.892;17.884;2022-12-01T16:46:01;99579.09;;;0.48
75658;BMP280;64255;49.892;17.884;2022-12-01T16:48:30;99582.53;;;0.52
75658;BMP280;64255;49.892;17.884;2022-12-01T16:51:02;99580.63;;;0.49
75658;BMP280;64255;49.892;17.884;2022-12-01T16:53:30;99585.53;;;0.51
75658;BMP280;64255;49.892;17.884;2022-12-01T16:56:00;99576.44;;;0.44